createdAt,value
2022-12-02T00:01:01.815Z,66.02
2022-12-02T00:03:31.824Z,66.49
2022-12-02T00:06:00.220Z,66.57
2022-12-02T00:08:31.135Z,65.91
2022-12-02T00:11:02.894Z,66.34
2022-12-02T00:13:40.018Z,66.33
2022-12-02T00:16:18.451Z,66.05
2022-12-02T00:18:48.325Z,66.20
2022-12-02T00:21:16.182Z,66.78
2022-12-02T00:23:44.521Z,66.56
2022-12-02T00:26:12.664Z,66.71
2022-12-02T00:28:40.684Z,66.47
2022-12-02T00:31:08.705Z,66.34
2022-12-02T00:33:37.168Z,66.70
2022-12-02T00:36:07.302Z,66.60
2022-12-02T00:38:35.564Z,66.27
2022-12-02T00:41:03.832Z,66.74
2022-12-02T00:43:49.916Z,66.66
2022-12-02T00:46:33.746Z,66.66
2022-12-02T00:49:03.295Z,66.87
2022-12-02T00:51:32.644Z,66.89
2022-12-02T00:54:01.150Z,67.13
2022-12-02T00:56:29.458Z,67.14
2022-12-02T00:58:57.949Z,66.83
2022-12-02T01:01:26.798Z,66.67
2022-12-02T01:03:54.992Z,66.53
2022-12-02T01:06:23.427Z,66.64
2022-12-02T01:08:52.827Z,66.77
2022-12-02T01:11:21.150Z,66.74
2022-12-02T01:13:49.141Z,67.06
2022-12-02T01:16:17.693Z,66.81
2022-12-02T01:18:45.558Z,67.19
2022-12-02T01:21:13.850Z,67.00
2022-12-02T01:23:41.873Z,66.83
2022-12-02T01:26:11.822Z,67.07
2022-12-02T01:28:39.810Z,67.04
2022-12-02T01:31:08.320Z,66.68
2022-12-02T01:33:36.156Z,66.63
2022-12-02T01:36:04.742Z,66.98
2022-12-02T01:38:32.746Z,66.94
2022-12-02T01:41:01.683Z,66.85
2022-12-02T01:43:31.217Z,66.54
2022-12-02T01:46:00.509Z,66.77
2022-12-02T01:48:28.552Z,66.58
2022-12-02T01:50:57.554Z,66.90
2022-12-02T01:53:25.721Z,66.71
2022-12-02T01:55:53.706Z,67.01
2022-12-02T01:58:27.905Z,66.79
2022-12-02T02:00:58.306Z,66.68
2022-12-02T02:03:26.702Z,66.66
2022-12-02T02:05:54.836Z,66.52
2022-12-02T02:08:23.986Z,66.61
2022-12-02T02:10:52.002Z,66.90
2022-12-02T02:13:20.437Z,66.68
2022-12-02T02:15:48.366Z,66.47
2022-12-02T02:18:18.537Z,66.89
2022-12-02T02:20:47.705Z,66.82
2022-12-02T02:23:21.325Z,66.97
2022-12-02T02:25:52.700Z,66.85
2022-12-02T02:28:21.805Z,66.81
2022-12-02T02:30:49.775Z,67.03
2022-12-02T02:33:18.513Z,66.93
2022-12-02T02:35:47.990Z,67.29
2022-12-02T02:38:19.615Z,66.81
2022-12-02T02:40:49.323Z,67.36
2022-12-02T02:43:19.483Z,67.16
2022-12-02T02:45:48.303Z,66.71
2022-12-02T02:48:18.685Z,66.92
2022-12-02T02:50:48.161Z,66.87
2022-12-02T02:53:18.804Z,67.06
2022-12-02T02:55:48.302Z,67.34
2022-12-02T02:58:20.650Z,67.05
2022-12-02T03:00:52.118Z,67.19
2022-12-02T03:03:23.583Z,67.23
2022-12-02T03:05:54.874Z,67.16
2022-12-02T03:08:24.928Z,67.57
2022-12-02T03:10:58.026Z,67.24
2022-12-02T03:13:27.135Z,67.33
2022-12-02T03:15:55.216Z,67.39
2022-12-02T03:18:23.527Z,67.15
2022-12-02T03:20:52.035Z,67.86
2022-12-02T03:23:20.085Z,67.14
2022-12-02T03:25:48.820Z,67.46
2022-12-02T03:28:18.740Z,67.57
2022-12-02T03:30:47.409Z,67.56
2022-12-02T03:33:15.879Z,67.70
2022-12-02T03:35:43.840Z,67.55
2022-12-02T03:38:12.803Z,67.21
2022-12-02T03:40:40.661Z,67.99
2022-12-02T03:43:08.929Z,68.02
2022-12-02T03:45:38.777Z,68.28
2022-12-02T03:48:07.375Z,67.58
2022-12-02T03:50:35.895Z,67.49
2022-12-02T03:53:04.573Z,68.01
2022-12-02T03:55:33.222Z,67.61
2022-12-02T03:58:05.547Z,67.95
2022-12-02T04:00:34.087Z,67.39
2022-12-02T04:03:03.829Z,67.80
2022-12-02T04:05:32.268Z,67.84
2022-12-02T04:08:00.389Z,67.56
2022-12-02T04:10:28.835Z,67.25
2022-12-02T04:12:56.885Z,67.40
2022-12-02T04:15:25.186Z,67.16
2022-12-02T04:17:53.040Z,67.40
2022-12-02T04:20:22.982Z,67.09
2022-12-02T04:22:50.889Z,68.05
2022-12-02T04:25:18.742Z,67.63
2022-12-02T04:27:47.066Z,68.07
2022-12-02T04:30:15.118Z,67.87
2022-12-02T04:32:43.119Z,67.71
2022-12-02T04:35:11.651Z,68.21
2022-12-02T04:37:41.096Z,67.74
2022-12-02T04:40:10.373Z,67.96
2022-12-02T04:42:38.306Z,68.08
2022-12-02T04:45:07.226Z,68.34
2022-12-02T04:47:35.170Z,67.90
2022-12-02T04:50:03.520Z,67.56
2022-12-02T04:52:31.627Z,67.73
2022-12-02T04:55:01.265Z,67.68
2022-12-02T04:57:31.899Z,67.69
2022-12-02T05:00:00.088Z,67.56
2022-12-02T05:02:28.500Z,67.81
2022-12-02T05:04:56.773Z,67.64
2022-12-02T05:07:25.317Z,67.72
2022-12-02T05:09:53.373Z,67.98
2022-12-02T05:12:24.264Z,67.73
2022-12-02T05:14:53.292Z,68.15
2022-12-02T05:17:21.428Z,67.99
2022-12-02T05:19:49.937Z,67.65
2022-12-02T05:22:18.213Z,67.24
2022-12-02T05:24:48.521Z,67.51
2022-12-02T05:27:17.586Z,67.50
2022-12-02T05:29:47.116Z,67.52
2022-12-02T05:32:15.625Z,67.03
2022-12-02T05:34:43.622Z,67.26
2022-12-02T05:37:12.003Z,66.71
2022-12-02T05:39:39.944Z,66.76
2022-12-02T05:42:09.979Z,66.76
2022-12-02T05:44:39.922Z,67.22
2022-12-02T05:47:13.799Z,67.14
2022-12-02T05:49:42.453Z,66.87
2022-12-02T05:52:22.353Z,66.38
2022-12-02T05:54:51.345Z,66.58
2022-12-02T05:57:28.196Z,65.96
2022-12-02T06:00:03.048Z,65.63
2022-12-02T06:02:40.996Z,65.88
2022-12-02T06:05:20.466Z,65.40
2022-12-02T06:07:51.057Z,65.63
2022-12-02T06:10:25.771Z,65.64
2022-12-02T06:12:56.298Z,65.08
2022-12-02T06:15:24.482Z,64.79
2022-12-02T06:17:54.337Z,64.74
2022-12-02T06:20:30.277Z,64.83
2022-12-02T06:22:58.759Z,64.80
2022-12-02T06:25:29.508Z,64.76
2022-12-02T06:28:03.562Z,64.85
2022-12-02T06:30:35.973Z,64.81
2022-12-02T06:33:05.499Z,65.29
2022-12-02T06:35:34.513Z,64.99
2022-12-02T06:41:17.579Z,65.58
2022-12-02T06:44:07.054Z,65.53
2022-12-02T06:46:48.337Z,65.35
2022-12-02T06:49:22.228Z,65.02
2022-12-02T06:51:53.529Z,65.15
2022-12-02T06:54:24.914Z,65.89
2022-12-02T06:57:03.010Z,65.92
2022-12-02T06:59:33.184Z,66.43
2022-12-02T07:02:16.203Z,66.48
2022-12-02T07:08:34.247Z,66.80
2022-12-02T07:11:01.988Z,66.66
2022-12-02T07:13:29.798Z,67.06
2022-12-02T07:15:57.928Z,67.38
2022-12-02T07:18:26.168Z,67.33
2022-12-02T07:20:56.476Z,66.78
2022-12-02T07:23:28.053Z,66.52
2022-12-02T07:26:01.601Z,66.73
2022-12-02T07:28:35.076Z,66.98
2022-12-02T07:31:04.666Z,66.70
2022-12-02T07:33:32.716Z,66.57
2022-12-02T07:36:00.434Z,65.53
2022-12-02T07:38:57.618Z,66.30
2022-12-02T07:41:19.495Z,66.30
2022-12-02T07:43:47.437Z,65.99
2022-12-02T07:46:15.267Z,66.11
2022-12-02T07:48:43.121Z,66.66
2022-12-02T07:51:12.624Z,66.01
2022-12-02T07:53:40.480Z,66.16
2022-12-02T07:56:08.772Z,65.83
2022-12-02T07:59:10.106Z,67.12
2022-12-02T08:01:26.246Z,66.40
2022-12-02T08:03:54.151Z,66.48
2022-12-02T08:06:23.021Z,65.27
2022-12-02T08:08:50.827Z,65.19
2022-12-02T08:11:18.726Z,64.99
2022-12-02T08:13:47.977Z,65.14
2022-12-02T08:16:15.850Z,64.37
2022-12-02T08:18:43.996Z,63.94
2022-12-02T08:21:11.828Z,63.98
2022-12-02T08:23:39.545Z,63.89
2022-12-02T08:26:07.655Z,63.41
2022-12-02T08:28:35.347Z,64.49
2022-12-02T08:31:04.831Z,63.36
2022-12-02T08:33:32.846Z,63.81
2022-12-02T08:36:00.842Z,63.30
2022-12-02T08:38:28.820Z,63.81
2022-12-02T08:40:56.601Z,64.03
2022-12-02T08:43:24.589Z,64.12
2022-12-02T08:45:52.530Z,63.46
2022-12-02T08:48:22.473Z,64.30
2022-12-02T08:50:50.300Z,63.46
2022-12-02T08:53:18.559Z,63.91
2022-12-02T08:55:46.394Z,63.25
2022-12-02T08:58:14.727Z,62.71
2022-12-02T09:00:42.924Z,62.46
2022-12-02T09:03:11.783Z,62.39
2022-12-02T09:05:42.355Z,63.04
2022-12-02T09:08:10.296Z,62.87
2022-12-02T09:10:38.228Z,63.27
2022-12-02T09:13:06.239Z,62.72
2022-12-02T09:15:34.068Z,62.41
2022-12-02T09:18:02.025Z,62.84
2022-12-02T09:20:29.807Z,63.22
2022-12-02T09:22:59.127Z,62.51
2022-12-02T09:25:28.317Z,62.17
2022-12-02T09:27:56.285Z,62.90
2022-12-02T09:30:23.994Z,62.47
2022-12-02T09:32:52.741Z,63.08
2022-12-02T09:35:20.558Z,63.26
2022-12-02T09:37:48.835Z,63.82
2022-12-02T09:40:18.817Z,63.93
2022-12-02T09:42:46.740Z,63.46
2022-12-02T09:45:15.334Z,63.16
2022-12-02T09:47:43.942Z,63.68
2022-12-02T09:50:14.730Z,63.81
2022-12-02T09:52:44.370Z,63.68
2022-12-02T09:55:14.612Z,63.97
2022-12-02T09:57:47.480Z,64.01
2022-12-02T10:00:18.958Z,64.03
2022-12-02T10:02:50.373Z,63.86
2022-12-02T10:05:20.574Z,63.28
2022-12-02T10:07:50.111Z,63.55
2022-12-02T10:10:21.672Z,63.51
2022-12-02T10:12:51.054Z,63.60
2022-12-02T10:15:26.049Z,64.64
2022-12-02T10:17:54.985Z,65.00
2022-12-02T10:20:25.339Z,64.45
2022-12-02T10:23:12.707Z,64.18
2022-12-02T10:25:42.969Z,64.31
2022-12-02T10:28:25.276Z,64.98
2022-12-02T10:30:56.447Z,65.27
2022-12-02T10:33:26.915Z,65.43
2022-12-02T10:35:56.861Z,65.65
2022-12-02T10:38:31.104Z,64.57
2022-12-02T10:41:14.320Z,65.10
2022-12-02T10:43:45.624Z,65.17
2022-12-02T10:46:14.627Z,65.17
2022-12-02T10:48:43.364Z,64.93
2022-12-02T10:51:15.995Z,64.94
2022-12-02T10:53:45.554Z,65.43
2022-12-02T10:56:20.588Z,64.37
2022-12-02T10:58:51.203Z,64.88
2022-12-02T11:01:21.407Z,64.68
2022-12-02T11:03:50.109Z,64.58
2022-12-02T11:06:21.811Z,64.40
2022-12-02T11:08:50.917Z,64.53
2022-12-02T11:11:38.678Z,64.51
2022-12-02T11:14:12.854Z,65.17
2022-12-02T11:17:05.969Z,65.06
2022-12-02T11:19:47.244Z,64.82
2022-12-02T11:23:03.908Z,64.87
2022-12-02T11:25:54.714Z,64.83
2022-12-02T11:28:58.957Z,64.63
2022-12-02T11:31:29.479Z,64.07
2022-12-02T11:34:25.741Z,65.48
2022-12-02T11:37:31.096Z,64.85
2022-12-02T11:40:00.948Z,64.61
2022-12-02T11:42:29.919Z,65.36
2022-12-02T11:45:17.427Z,64.57
2022-12-02T11:47:56.865Z,64.34
2022-12-02T11:50:28.903Z,65.50
2022-12-02T11:53:02.165Z,65.46
2022-12-02T11:55:36.972Z,64.90
2022-12-02T11:58:05.768Z,64.57
2022-12-02T12:00:38.400Z,65.00
2022-12-02T12:03:14.915Z,64.78
2022-12-02T12:05:44.736Z,64.73
2022-12-02T12:08:26.658Z,65.04
2022-12-02T12:11:20.203Z,64.21
2022-12-02T12:14:06.426Z,64.70
2022-12-02T12:16:36.743Z,64.64
2022-12-02T12:19:27.140Z,63.67
2022-12-02T12:21:56.234Z,64.06
2022-12-02T12:24:32.703Z,64.30
2022-12-02T12:27:12.573Z,64.81
2022-12-02T12:29:42.523Z,63.92
2022-12-02T12:32:11.570Z,63.97
2022-12-02T12:34:40.811Z,64.36
2022-12-02T12:37:09.155Z,64.56
2022-12-02T12:39:37.104Z,64.23
2022-12-02T12:42:05.145Z,64.86
2022-12-02T12:44:33.476Z,64.69
2022-12-02T12:47:04.251Z,65.08
2022-12-02T12:49:33.262Z,64.33
2022-12-02T12:52:03.086Z,65.07
2022-12-02T12:54:31.828Z,64.75
2022-12-02T12:57:00.087Z,64.99
2022-12-02T12:59:28.067Z,64.79
2022-12-02T13:01:56.094Z,65.34
2022-12-02T13:04:24.588Z,66.55
2022-12-02T13:06:52.511Z,65.88
2022-12-02T13:09:21.854Z,66.10
2022-12-02T13:11:50.104Z,66.22
2022-12-02T13:14:17.915Z,66.43
2022-12-02T13:16:46.015Z,66.20
2022-12-02T13:19:13.925Z,67.96
2022-12-02T13:21:42.143Z,69.93
2022-12-02T13:24:11.099Z,67.76
2022-12-02T13:26:40.912Z,67.91
2022-12-02T13:29:09.417Z,68.38
2022-12-02T13:31:37.819Z,68.09
2022-12-02T13:34:09.849Z,68.18
2022-12-02T13:36:37.615Z,68.06
2022-12-02T13:39:06.685Z,67.70
2022-12-02T13:41:35.213Z,67.68
2022-12-02T13:44:04.464Z,67.08
2022-12-02T13:46:32.852Z,67.66
2022-12-02T13:49:01.232Z,67.48
2022-12-02T13:51:29.019Z,67.37
2022-12-02T13:53:59.347Z,67.61
2022-12-02T13:56:27.755Z,68.00
2022-12-02T13:58:56.049Z,68.70
2022-12-02T14:01:25.639Z,68.51
2022-12-02T14:06:42.497Z,68.84
2022-12-02T14:09:10.378Z,69.19
2022-12-02T14:11:38.360Z,68.67
2022-12-02T14:14:06.876Z,68.80
2022-12-02T14:16:36.182Z,68.17
2022-12-02T14:19:04.387Z,68.02
2022-12-02T14:21:32.207Z,68.13
2022-12-02T14:24:00.034Z,68.29
2022-12-02T14:26:27.745Z,67.82
2022-12-02T14:28:55.543Z,67.62
2022-12-02T14:31:26.379Z,67.90
2022-12-02T14:34:11.376Z,67.58
2022-12-02T14:36:40.396Z,67.96
2022-12-02T14:39:08.285Z,67.34
2022-12-02T14:41:36.116Z,67.74
2022-12-02T14:44:03.924Z,67.59
2022-12-02T14:46:32.211Z,67.53
2022-12-02T14:51:50.797Z,67.56
2022-12-02T14:54:18.644Z,66.99
2022-12-02T14:56:46.940Z,67.27
2022-12-02T14:59:15.399Z,66.79
2022-12-02T15:05:40.019Z,66.96
2022-12-02T15:08:08.275Z,66.38
2022-12-02T15:10:41.778Z,67.30
2022-12-02T15:13:09.963Z,66.46
2022-12-02T15:15:39.624Z,66.40
2022-12-02T15:18:07.989Z,66.08
2022-12-02T16:01:23.039Z,64.28
2022-12-02T16:27:45.528Z,64.17
2022-12-02T16:30:14.254Z,64.47
2022-12-02T16:32:42.628Z,64.56
2022-12-02T16:35:11.074Z,65.35
2022-12-02T16:37:39.901Z,64.52
2022-12-02T16:40:09.193Z,63.99
2022-12-02T16:51:38.644Z,63.74
2022-12-02T16:54:20.963Z,64.11
2022-12-02T16:56:55.688Z,64.47
2022-12-02T16:59:28.567Z,64.42
2022-12-02T17:02:00.645Z,64.43
2022-12-02T17:04:29.333Z,64.75
2022-12-02T17:06:58.794Z,65.80
2022-12-02T17:09:27.486Z,65.42
2022-12-02T17:11:55.583Z,65.67
2022-12-02T17:20:55.475Z,64.61
2022-12-02T17:23:27.208Z,64.84
2022-12-02T18:05:29.943Z,62.78
2022-12-02T18:07:58.214Z,63.54
2022-12-02T18:10:26.069Z,62.53
2022-12-02T18:12:56.918Z,61.42
2022-12-02T18:15:24.928Z,62.54
2022-12-02T18:17:53.101Z,62.09
2022-12-02T18:20:20.969Z,62.15
2022-12-02T18:22:50.177Z,62.94
2022-12-02T18:25:18.034Z,62.51
2022-12-02T18:27:45.964Z,61.70
2022-12-02T18:30:17.459Z,62.04
2022-12-02T18:32:46.775Z,61.96
2022-12-02T18:35:15.955Z,62.40
2022-12-02T18:37:43.909Z,61.76
2022-12-02T18:40:17.762Z,62.30
2022-12-02T18:42:48.211Z,61.97
2022-12-02T18:45:16.279Z,61.25
2022-12-02T18:47:44.528Z,61.56
2022-12-02T18:50:16.892Z,62.60
2022-12-02T18:52:45.516Z,62.03
2022-12-02T18:55:15.635Z,62.48
2022-12-02T18:57:44.118Z,61.96
2022-12-02T19:00:15.024Z,61.38
2022-12-02T19:02:44.023Z,62.47
2022-12-02T19:05:11.943Z,62.39
2022-12-02T19:07:40.142Z,61.32
2022-12-02T19:10:09.038Z,62.64
2022-12-02T19:12:38.921Z,62.50
2022-12-02T19:15:07.867Z,62.28
2022-12-02T19:17:35.954Z,62.08
2022-12-02T19:20:03.925Z,62.25
2022-12-02T19:22:31.743Z,62.33
2022-12-02T19:25:03.464Z,61.60
2022-12-02T19:27:56.986Z,62.11
2022-12-02T19:30:20.955Z,62.57
2022-12-02T19:32:49.445Z,61.14
2022-12-02T19:35:18.238Z,61.37
2022-12-02T19:37:46.489Z,61.38
2022-12-02T19:40:15.479Z,61.11
2022-12-02T19:42:43.886Z,62.04
2022-12-02T19:45:14.761Z,61.96
2022-12-02T19:47:44.755Z,62.13
2022-12-02T19:50:14.859Z,62.48
2022-12-02T19:52:42.959Z,62.85
2022-12-02T19:55:15.274Z,62.82
2022-12-02T19:57:45.526Z,62.08
2022-12-02T20:00:18.510Z,62.79
2022-12-02T20:02:57.704Z,62.78
2022-12-02T20:05:27.624Z,62.20
2022-12-02T20:07:59.930Z,62.15
2022-12-02T20:10:31.650Z,62.35
2022-12-02T20:13:00.357Z,62.20
2022-12-02T20:15:31.979Z,62.13
2022-12-02T20:18:04.398Z,61.57
2022-12-02T20:20:33.207Z,61.80
2022-12-02T20:23:01.428Z,61.91
2022-12-02T20:25:32.594Z,61.34
2022-12-02T20:28:01.468Z,61.97
2022-12-02T20:30:31.249Z,61.82
2022-12-02T20:33:00.224Z,61.82
2022-12-02T20:35:31.101Z,62.25
2022-12-02T20:38:01.373Z,61.63
2022-12-02T20:40:30.183Z,61.53
2022-12-02T20:42:58.143Z,62.30
2022-12-02T20:45:26.996Z,61.95
2022-12-02T20:47:54.752Z,61.92
2022-12-02T20:53:12.329Z,61.92
2022-12-02T20:55:40.667Z,62.62
2022-12-02T20:58:09.153Z,62.08
2022-12-02T21:00:38.402Z,61.94
2022-12-02T21:03:06.605Z,62.04
2022-12-02T21:05:36.525Z,61.79
2022-12-02T21:08:05.230Z,61.44
2022-12-02T21:10:35.550Z,62.56
2022-12-02T21:13:05.131Z,62.30
2022-12-02T21:15:33.052Z,61.29
2022-12-02T21:18:01.231Z,61.28
2022-12-02T21:20:29.946Z,60.91
2022-12-02T21:22:59.508Z,61.12
2022-12-02T21:25:27.319Z,61.23
2022-12-02T21:27:58.552Z,60.97
2022-12-02T21:30:26.376Z,61.16
2022-12-02T21:32:55.155Z,60.59
2022-12-02T21:35:22.926Z,61.21
2022-12-02T21:37:51.126Z,61.07
2022-12-02T21:40:20.332Z,61.01
2022-12-02T21:42:48.143Z,61.72
2022-12-02T21:45:17.466Z,61.02
2022-12-02T21:47:45.300Z,61.47
2022-12-02T21:50:14.417Z,61.58
2022-12-02T21:52:42.176Z,60.75
2022-12-02T21:55:11.301Z,61.31
2022-12-02T21:57:40.111Z,61.29
2022-12-02T22:00:10.183Z,60.99
2022-12-02T22:02:40.401Z,61.11
2022-12-02T22:05:09.854Z,60.62
2022-12-02T22:07:43.978Z,60.36
2022-12-02T22:10:17.091Z,60.58
2022-12-02T22:12:45.749Z,60.55
2022-12-02T22:15:14.512Z,61.60
2022-12-02T22:17:43.842Z,61.00
2022-12-02T22:20:13.514Z,60.83
2022-12-02T22:22:42.954Z,60.96
2022-12-02T22:25:11.281Z,60.69
2022-12-02T22:27:42.091Z,60.89
2022-12-02T22:30:12.256Z,61.34
2022-12-02T22:32:42.594Z,60.24
2022-12-02T22:35:15.923Z,61.37
2022-12-02T22:37:44.542Z,61.39
2022-12-02T22:40:14.918Z,60.51
2022-12-02T22:42:43.764Z,61.19
2022-12-02T22:45:13.036Z,61.37
2022-12-02T22:47:41.270Z,61.02
2022-12-02T22:50:10.234Z,60.50
2022-12-02T22:52:40.654Z,60.99
2022-12-02T22:55:09.719Z,61.32
2022-12-02T22:57:39.201Z,61.55
2022-12-02T23:00:11.027Z,60.76
2022-12-02T23:02:42.466Z,61.29
2022-12-02T23:05:11.286Z,60.94
2022-12-02T23:07:40.614Z,60.98
2022-12-02T23:10:09.903Z,61.09
2022-12-02T23:12:39.425Z,60.78
2022-12-02T23:15:35.128Z,60.91
2022-12-02T23:18:02.877Z,61.12
2022-12-02T23:20:32.359Z,60.96
2022-12-02T23:23:01.906Z,61.18
2022-12-02T23:25:32.989Z,61.59
2022-12-02T23:28:03.429Z,60.57
2022-12-02T23:30:31.606Z,61.02
2022-12-02T23:33:03.436Z,60.67
2022-12-02T23:35:31.825Z,60.97
2022-12-02T23:38:16.981Z,61.63
2022-12-02T23:40:46.433Z,61.99
2022-12-02T23:43:19.627Z,61.68
2022-12-02T23:45:51.687Z,61.13
2022-12-02T23:48:20.382Z,61.29
2022-12-02T23:50:49.017Z,61.01
2022-12-02T23:53:19.966Z,60.61
2022-12-02T23:55:48.522Z,61.52
2022-12-02T23:58:17.847Z,61.50
